sensor_id;sensor_type;location;lat;lon;timestamp;temperature;humidity
12769;DHT22;6448;48.916;8.990;2023-04-24T00:00:30;18.20;51.10
12769;DHT22;6448;48.916;8.990;2023-04-24T00:01:32;18.20;51.10
12769;DHT22;6448;48.916;8.990;2023-04-24T00:02:34;18.20;51.10
12769;DHT22;6448;48.916;8.990;2023-04-24T00:03:38;18.20;51.10
12769;DHT22;6448;48.916;8.990;2023-04-24T00:04:41;18.20;51.10
12769;DHT22;6448;48.916;8.990;2023-04-24T00:05:45;18.20;51.00
12769;DHT22;6448;48.916;8.990;2023-04-24T00:06:47;18.20;51.10
12769;DHT22;6448;48.916;8.990;2023-04-24T00:07:50;18.20;51.00
12769;DHT22;6448;48.916;8.990;2023-04-24T00:08:53;18.20;51.00
12769;DHT22;6448;48.916;8.990;2023-04-24T00:09:55;18.20;51.00
12769;DHT22;6448;48.916;8.990;2023-04-24T00:10:57;18.20;51.00
12769;DHT22;6448;48.916;8.990;2023-04-24T00:11:58;18.20;51.00
12769;DHT22;6448;48.916;8.990;2023-04-24T00:13:00;18.20;51.00
12769;DHT22;6448;48.916;8.990;2023-04-24T00:14:01;18.20;51.00
12769;DHT22;6448;48.916;8.990;2023-04-24T00:15:03;18.20;51.00
12769;DHT22;6448;48.916;8.990;2023-04-24T00:16:04;18.20;51.00
12769;DHT22;6448;48.916;8.990;2023-04-24T00:17:06;18.20;51.10
12769;DHT22;6448;48.916;8.990;2023-04-24T00:18:07;18.20;51.10
12769;DHT22;6448;48.916;8.990;2023-04-24T00:19:09;18.20;51.10
12769;DHT22;6448;48.916;8.990;2023-04-24T00:20:12;18.20;51.10
12769;DHT22;6448;48.916;8.990;2023-04-24T00:21:15;18.20;51.10
12769;DHT22;6448;48.916;8.990;2023-04-24T00:22:18;18.20;51.10
12769;DHT22;6448;48.916;8.990;2023-04-24T00:23:21;18.20;51.10
12769;DHT22;6448;48.916;8.990;2023-04-24T00:24:22;18.20;51.10
12769;DHT22;6448;48.916;8.990;2023-04-24T00:25:25;18.20;51.20
12769;DHT22;6448;48.916;8.990;2023-04-24T00:26:25;18.20;51.10
12769;DHT22;6448;48.916;8.990;2023-04-24T00:27:27;18.10;51.10
12769;DHT22;6448;48.916;8.990;2023-04-24T00:28:28;18.20;51.10
12769;DHT22;6448;48.916;8.990;2023-04-24T00:29:31;18.20;51.20
12769;DHT22;6448;48.916;8.990;2023-04-24T00:30:32;18.30;51.20
12769;DHT22;6448;48.916;8.990;2023-04-24T00:31:34;18.20;51.10
12769;DHT22;6448;48.916;8.990;2023-04-24T00:32:35;18.20;51.10
12769;DHT22;6448;48.916;8.990;2023-04-24T00:33:37;18.20;51.20
12769;DHT22;6448;48.916;8.990;2023-04-24T00:34:38;18.20;51.10
12769;DHT22;6448;48.916;8.990;2023-04-24T00:35:39;18.20;51.20
12769;DHT22;6448;48.916;8.990;2023-04-24T00:36:41;18.20;51.20
12769;DHT22;6448;48.916;8.990;2023-04-24T00:37:42;18.30;51.20
12769;DHT22;6448;48.916;8.990;2023-04-24T00:38:44;18.20;51.10
12769;DHT22;6448;48.916;8.990;2023-04-24T00:39:46;18.20;51.10
12769;DHT22;6448;48.916;8.990;2023-04-24T00:40:48;18.20;51.10
12769;DHT22;6448;48.916;8.990;2023-04-24T00:41:51;18.20;51.10
12769;DHT22;6448;48.916;8.990;2023-04-24T00:42:51;18.20;51.10
12769;DHT22;6448;48.916;8.990;2023-04-24T00:43:53;18.20;51.10
12769;DHT22;6448;48.916;8.990;2023-04-24T00:44:54;18.20;51.00
12769;DHT22;6448;48.916;8.990;2023-04-24T00:45:57;18.20;51.00
12769;DHT22;6448;48.916;8.990;2023-04-24T00:47:00;18.20;51.00
12769;DHT22;6448;48.916;8.990;2023-04-24T00:48:02;18.20;51.00
12769;DHT22;6448;48.916;8.990;2023-04-24T00:49:05;18.20;51.00
12769;DHT22;6448;48.916;8.990;2023-04-24T00:50:08;18.10;51.00
12769;DHT22;6448;48.916;8.990;2023-04-24T00:51:09;18.20;51.10
12769;DHT22;6448;48.916;8.990;2023-04-24T00:52:10;18.10;51.10
12769;DHT22;6448;48.916;8.990;2023-04-24T00:53:13;18.20;51.10
12769;DHT22;6448;48.916;8.990;2023-04-24T00:54:14;18.20;51.10
12769;DHT22;6448;48.916;8.990;2023-04-24T00:55:15;18.10;50.90
12769;DHT22;6448;48.916;8.990;2023-04-24T00:56:19;18.10;51.00
12769;DHT22;6448;48.916;8.990;2023-04-24T00:57:20;18.20;51.00
12769;DHT22;6448;48.916;8.990;2023-04-24T00:58:24;18.10;50.90
12769;DHT22;6448;48.916;8.990;2023-04-24T00:59:25;18.10;50.90
12769;DHT22;6448;48.916;8.990;2023-04-24T01:00:27;18.10;50.90
12769;DHT22;6448;48.916;8.990;2023-04-24T01:01:29;18.10;50.90
12769;DHT22;6448;48.916;8.990;2023-04-24T01:02:31;18.10;51.00
12769;DHT22;6448;48.916;8.990;2023-04-24T01:03:34;18.10;51.00
12769;DHT22;6448;48.916;8.990;2023-04-24T01:04:37;18.10;51.10
12769;DHT22;6448;48.916;8.990;2023-04-24T01:05:39;18.10;51.10
12769;DHT22;6448;48.916;8.990;2023-04-24T01:06:41;18.10;51.00
12769;DHT22;6448;48.916;8.990;2023-04-24T01:07:45;18.10;51.10
12769;DHT22;6448;48.916;8.990;2023-04-24T01:08:49;18.10;51.10
12769;DHT22;6448;48.916;8.990;2023-04-24T01:09:50;18.10;51.10
12769;DHT22;6448;48.916;8.990;2023-04-24T01:10:52;18.10;51.00
12769;DHT22;6448;48.916;8.990;2023-04-24T01:11:55;18.10;51.00
12769;DHT22;6448;48.916;8.990;2023-04-24T01:12:57;18.10;51.00
12769;DHT22;6448;48.916;8.990;2023-04-24T01:13:58;18.20;51.00
12769;DHT22;6448;48.916;8.990;2023-04-24T01:15:01;18.10;50.90
12769;DHT22;6448;48.916;8.990;2023-04-24T01:16:02;18.10;50.90
12769;DHT22;6448;48.916;8.990;2023-04-24T01:17:03;18.10;51.50
12769;DHT22;6448;48.916;8.990;2023-04-24T01:18:04;18.10;50.90
12769;DHT22;6448;48.916;8.990;2023-04-24T01:19:06;18.10;50.80
12769;DHT22;6448;48.916;8.990;2023-04-24T01:20:08;18.10;50.80
12769;DHT22;6448;48.916;8.990;2023-04-24T01:21:13;18.10;50.80
12769;DHT22;6448;48.916;8.990;2023-04-24T01:22:16;18.20;50.90
12769;DHT22;6448;48.916;8.990;2023-04-24T01:23:18;18.10;50.70
12769;DHT22;6448;48.916;8.990;2023-04-24T01:24:19;18.10;50.70
12769;DHT22;6448;48.916;8.990;2023-04-24T01:25:21;18.10;50.70
12769;DHT22;6448;48.916;8.990;2023-04-24T01:26:23;18.00;50.70
12769;DHT22;6448;48.916;8.990;2023-04-24T01:27:26;18.00;50.80
12769;DHT22;6448;48.916;8.990;2023-04-24T01:28:27;18.00;50.80
12769;DHT22;6448;48.916;8.990;2023-04-24T01:29:29;18.00;50.80
12769;DHT22;6448;48.916;8.990;2023-04-24T01:30:32;18.00;50.90
12769;DHT22;6448;48.916;8.990;2023-04-24T01:31:34;17.90;50.90
12769;DHT22;6448;48.916;8.990;2023-04-24T01:32:36;17.90;50.90
12769;DHT22;6448;48.916;8.990;2023-04-24T01:33:38;17.90;51.00
12769;DHT22;6448;48.916;8.990;2023-04-24T01:34:40;17.90;51.00
12769;DHT22;6448;48.916;8.990;2023-04-24T01:35:42;17.80;51.00
12769;DHT22;6448;48.916;8.990;2023-04-24T01:36:45;17.80;51.10
12769;DHT22;6448;48.916;8.990;2023-04-24T01:37:47;17.80;51.10
12769;DHT22;6448;48.916;8.990;2023-04-24T01:38:50;17.90;51.20
12769;DHT22;6448;48.916;8.990;2023-04-24T01:39:51;17.80;51.20
12769;DHT22;6448;48.916;8.990;2023-04-24T01:40:53;17.80;51.20
12769;DHT22;6448;48.916;8.990;2023-04-24T01:41:54;17.80;51.20
12769;DHT22;6448;48.916;8.990;2023-04-24T01:42:56;17.70;51.20
12769;DHT22;6448;48.916;8.990;2023-04-24T01:43:58;17.80;51.40
12769;DHT22;6448;48.916;8.990;2023-04-24T01:45:01;17.80;51.40
12769;DHT22;6448;48.916;8.990;2023-04-24T01:46:05;17.80;51.50
12769;DHT22;6448;48.916;8.990;2023-04-24T01:47:10;17.80;51.50
12769;DHT22;6448;48.916;8.990;2023-04-24T01:48:12;17.70;51.50
12769;DHT22;6448;48.916;8.990;2023-04-24T01:49:14;17.70;51.50
12769;DHT22;6448;48.916;8.990;2023-04-24T01:50:16;17.70;51.60
12769;DHT22;6448;48.916;8.990;2023-04-24T01:51:18;17.70;51.60
12769;DHT22;6448;48.916;8.990;2023-04-24T01:52:19;17.70;51.60
12769;DHT22;6448;48.916;8.990;2023-04-24T01:53:23;17.70;51.60
12769;DHT22;6448;48.916;8.990;2023-04-24T01:54:24;17.70;51.60
12769;DHT22;6448;48.916;8.990;2023-04-24T01:55:25;17.70;51.60
12769;DHT22;6448;48.916;8.990;2023-04-24T01:56:28;17.70;51.60
12769;DHT22;6448;48.916;8.990;2023-04-24T01:57:31;17.70;51.70
12769;DHT22;6448;48.916;8.990;2023-04-24T01:58:32;17.80;51.80
12769;DHT22;6448;48.916;8.990;2023-04-24T01:59:34;17.90;51.80
12769;DHT22;6448;48.916;8.990;2023-04-24T02:00:36;17.70;51.80
12769;DHT22;6448;48.916;8.990;2023-04-24T02:01:39;17.80;51.80
12769;DHT22;6448;48.916;8.990;2023-04-24T02:02:40;17.80;51.80
12769;DHT22;6448;48.916;8.990;2023-04-24T02:03:42;17.70;51.80
12769;DHT22;6448;48.916;8.990;2023-04-24T02:04:43;17.90;51.90
12769;DHT22;6448;48.916;8.990;2023-04-24T02:05:45;17.80;51.90
12769;DHT22;6448;48.916;8.990;2023-04-24T02:06:46;17.80;51.80
12769;DHT22;6448;48.916;8.990;2023-04-24T02:07:47;17.80;51.90
12769;DHT22;6448;48.916;8.990;2023-04-24T02:08:49;17.80;51.90
12769;DHT22;6448;48.916;8.990;2023-04-24T02:09:51;17.80;51.90
12769;DHT22;6448;48.916;8.990;2023-04-24T02:10:52;17.80;51.90
12769;DHT22;6448;48.916;8.990;2023-04-24T02:11:54;17.80;51.80
12769;DHT22;6448;48.916;8.990;2023-04-24T02:12:58;17.80;51.90
12769;DHT22;6448;48.916;8.990;2023-04-24T02:14:00;17.80;51.80
12769;DHT22;6448;48.916;8.990;2023-04-24T02:15:02;17.80;51.80
12769;DHT22;6448;48.916;8.990;2023-04-24T02:16:03;17.80;51.80
12769;DHT22;6448;48.916;8.990;2023-04-24T02:17:05;17.80;51.80
12769;DHT22;6448;48.916;8.990;2023-04-24T02:18:07;17.80;51.90
12769;DHT22;6448;48.916;8.990;2023-04-24T02:19:09;17.80;51.90
12769;DHT22;6448;48.916;8.990;2023-04-24T02:20:10;17.80;52.00
12769;DHT22;6448;48.916;8.990;2023-04-24T02:21:12;17.80;52.00
12769;DHT22;6448;48.916;8.990;2023-04-24T02:22:13;17.70;52.00
12769;DHT22;6448;48.916;8.990;2023-04-24T02:23:15;17.90;52.20
12769;DHT22;6448;48.916;8.990;2023-04-24T02:24:17;17.80;52.20
12769;DHT22;6448;48.916;8.990;2023-04-24T02:25:19;17.80;52.30
12769;DHT22;6448;48.916;8.990;2023-04-24T02:26:20;17.80;52.30
12769;DHT22;6448;48.916;8.990;2023-04-24T02:27:22;17.80;52.40
12769;DHT22;6448;48.916;8.990;2023-04-24T02:28:23;17.80;52.40
12769;DHT22;6448;48.916;8.990;2023-04-24T02:29:25;17.80;52.40
12769;DHT22;6448;48.916;8.990;2023-04-24T02:30:26;17.80;52.50
12769;DHT22;6448;48.916;8.990;2023-04-24T02:31:28;17.80;52.50
12769;DHT22;6448;48.916;8.990;2023-04-24T02:32:28;17.80;52.60
12769;DHT22;6448;48.916;8.990;2023-04-24T02:33:31;17.80;52.60
12769;DHT22;6448;48.916;8.990;2023-04-24T02:34:32;17.80;52.60
12769;DHT22;6448;48.916;8.990;2023-04-24T02:35:34;17.90;52.60
12769;DHT22;6448;48.916;8.990;2023-04-24T02:36:35;17.80;52.60
12769;DHT22;6448;48.916;8.990;2023-04-24T02:37:36;17.80;52.60
12769;DHT22;6448;48.916;8.990;2023-04-24T02:38:37;17.80;52.70
12769;DHT22;6448;48.916;8.990;2023-04-24T02:39:41;17.90;52.80
12769;DHT22;6448;48.916;8.990;2023-04-24T02:40:42;17.80;52.70
12769;DHT22;6448;48.916;8.990;2023-04-24T02:41:44;17.80;52.80
12769;DHT22;6448;48.916;8.990;2023-04-24T02:42:45;17.80;53.00
12769;DHT22;6448;48.916;8.990;2023-04-24T02:43:47;17.80;53.10
12769;DHT22;6448;48.916;8.990;2023-04-24T02:44:48;17.80;53.20
12769;DHT22;6448;48.916;8.990;2023-04-24T02:45:51;17.70;53.30
12769;DHT22;6448;48.916;8.990;2023-04-24T02:46:52;17.80;53.50
12769;DHT22;6448;48.916;8.990;2023-04-24T02:47:54;17.80;53.60
12769;DHT22;6448;48.916;8.990;2023-04-24T02:48:55;17.80;53.70
12769;DHT22;6448;48.916;8.990;2023-04-24T02:49:57;17.80;53.70
12769;DHT22;6448;48.916;8.990;2023-04-24T02:50:57;17.80;53.80
12769;DHT22;6448;48.916;8.990;2023-04-24T02:51:59;17.70;53.70
12769;DHT22;6448;48.916;8.990;2023-04-24T02:53:00;17.70;53.80
12769;DHT22;6448;48.916;8.990;2023-04-24T02:54:02;17.70;53.80
12769;DHT22;6448;48.916;8.990;2023-04-24T02:55:05;17.70;53.80
12769;DHT22;6448;48.916;8.990;2023-04-24T02:56:08;17.70;53.90
12769;DHT22;6448;48.916;8.990;2023-04-24T02:57:09;17.70;53.90
12769;DHT22;6448;48.916;8.990;2023-04-24T02:58:14;17.70;53.90
12769;DHT22;6448;48.916;8.990;2023-04-24T02:59:15;17.70;53.90
12769;DHT22;6448;48.916;8.990;2023-04-24T03:00:17;17.70;53.90
12769;DHT22;6448;48.916;8.990;2023-04-24T03:01:17;17.70;53.90
12769;DHT22;6448;48.916;8.990;2023-04-24T03:02:19;17.70;53.90
12769;DHT22;6448;48.916;8.990;2023-04-24T03:03:21;17.60;53.90
12769;DHT22;6448;48.916;8.990;2023-04-24T03:04:23;17.60;53.90
12769;DHT22;6448;48.916;8.990;2023-04-24T03:05:24;17.60;53.80
12769;DHT22;6448;48.916;8.990;2023-04-24T03:06:26;17.60;53.80
12769;DHT22;6448;48.916;8.990;2023-04-24T03:07:27;17.60;53.80
12769;DHT22;6448;48.916;8.990;2023-04-24T03:08:29;17.60;53.90
12769;DHT22;6448;48.916;8.990;2023-04-24T03:09:30;17.60;53.90
12769;DHT22;6448;48.916;8.990;2023-04-24T03:10:33;17.60;53.90
12769;DHT22;6448;48.916;8.990;2023-04-24T03:11:33;17.60;53.90
12769;DHT22;6448;48.916;8.990;2023-04-24T03:12:35;17.60;54.00
12769;DHT22;6448;48.916;8.990;2023-04-24T03:13:36;17.60;54.00
12769;DHT22;6448;48.916;8.990;2023-04-24T03:14:38;17.80;54.20
12769;DHT22;6448;48.916;8.990;2023-04-24T03:15:39;17.60;54.10
12769;DHT22;6448;48.916;8.990;2023-04-24T03:16:40;17.50;54.60
12769;DHT22;6448;48.916;8.990;2023-04-24T03:17:41;17.50;54.20
12769;DHT22;6448;48.916;8.990;2023-04-24T03:18:43;17.60;54.30
12769;DHT22;6448;48.916;8.990;2023-04-24T03:19:44;17.50;54.20
12769;DHT22;6448;48.916;8.990;2023-04-24T03:20:47;17.50;54.30
12769;DHT22;6448;48.916;8.990;2023-04-24T03:21:48;17.50;54.30
12769;DHT22;6448;48.916;8.990;2023-04-24T03:22:51;17.50;54.40
12769;DHT22;6448;48.916;8.990;2023-04-24T03:23:52;17.70;54.50
12769;DHT22;6448;48.916;8.990;2023-04-24T03:24:54;17.50;54.40
12769;DHT22;6448;48.916;8.990;2023-04-24T03:25:56;17.50;54.40
12769;DHT22;6448;48.916;8.990;2023-04-24T03:26:59;17.70;54.50
12769;DHT22;6448;48.916;8.990;2023-04-24T03:28:20;17.50;54.40
12769;DHT22;6448;48.916;8.990;2023-04-24T03:29:28;17.50;54.40
12769;DHT22;6448;48.916;8.990;2023-04-24T03:30:29;17.50;54.40
12769;DHT22;6448;48.916;8.990;2023-04-24T03:31:34;17.50;54.40
12769;DHT22;6448;48.916;8.990;2023-04-24T03:32:35;17.50;54.30
12769;DHT22;6448;48.916;8.990;2023-04-24T03:33:37;17.50;54.40
12769;DHT22;6448;48.916;8.990;2023-04-24T03:34:38;17.50;54.40
12769;DHT22;6448;48.916;8.990;2023-04-24T03:35:41;17.50;54.40
12769;DHT22;6448;48.916;8.990;2023-04-24T03:36:44;17.50;54.50
12769;DHT22;6448;48.916;8.990;2023-04-24T03:37:48;17.50;54.50
12769;DHT22;6448;48.916;8.990;2023-04-24T03:39:07;17.50;54.50
12769;DHT22;6448;48.916;8.990;2023-04-24T03:40:11;17.50;54.60
12769;DHT22;6448;48.916;8.990;2023-04-24T03:41:14;17.50;54.60
12769;DHT22;6448;48.916;8.990;2023-04-24T03:42:21;17.50;54.60
12769;DHT22;6448;48.916;8.990;2023-04-24T03:43:26;17.50;54.60
12769;DHT22;6448;48.916;8.990;2023-04-24T03:44:31;17.50;54.60
12769;DHT22;6448;48.916;8.990;2023-04-24T03:45:32;17.50;54.60
12769;DHT22;6448;48.916;8.990;2023-04-24T03:46:34;17.50;54.70
12769;DHT22;6448;48.916;8.990;2023-04-24T03:47:36;17.50;54.80
12769;DHT22;6448;48.916;8.990;2023-04-24T03:48:39;17.40;54.80
12769;DHT22;6448;48.916;8.990;2023-04-24T03:49:42;17.50;54.80
12769;DHT22;6448;48.916;8.990;2023-04-24T03:50:45;17.50;54.80
12769;DHT22;6448;48.916;8.990;2023-04-24T03:51:47;17.50;54.90
12769;DHT22;6448;48.916;8.990;2023-04-24T03:52:53;17.50;54.80
12769;DHT22;6448;48.916;8.990;2023-04-24T03:54:06;17.50;54.80
12769;DHT22;6448;48.916;8.990;2023-04-24T03:55:12;17.40;54.80
12769;DHT22;6448;48.916;8.990;2023-04-24T03:56:19;17.50;54.80
12769;DHT22;6448;48.916;8.990;2023-04-24T03:57:21;17.50;54.90
12769;DHT22;6448;48.916;8.990;2023-04-24T03:58:35;17.40;54.90
12769;DHT22;6448;48.916;8.990;2023-04-24T03:59:37;17.40;55.00
12769;DHT22;6448;48.916;8.990;2023-04-24T04:00:46;17.40;55.00
12769;DHT22;6448;48.916;8.990;2023-04-24T04:02:08;17.30;55.10
12769;DHT22;6448;48.916;8.990;2023-04-24T04:03:09;17.30;55.30
12769;DHT22;6448;48.916;8.990;2023-04-24T04:04:11;17.30;55.30
12769;DHT22;6448;48.916;8.990;2023-04-24T04:05:13;17.20;55.10
12769;DHT22;6448;48.916;8.990;2023-04-24T04:06:16;17.10;55.10
12769;DHT22;6448;48.916;8.990;2023-04-24T04:07:17;17.10;55.10
12769;DHT22;6448;48.916;8.990;2023-04-24T04:08:18;17.10;55.30
12769;DHT22;6448;48.916;8.990;2023-04-24T04:09:19;17.00;55.40
12769;DHT22;6448;48.916;8.990;2023-04-24T04:10:21;17.10;55.70
12769;DHT22;6448;48.916;8.990;2023-04-24T04:11:23;16.90;55.80
12769;DHT22;6448;48.916;8.990;2023-04-24T04:12:25;16.80;55.80
12769;DHT22;6448;48.916;8.990;2023-04-24T04:13:26;16.80;55.90
12769;DHT22;6448;48.916;8.990;2023-04-24T04:14:28;16.80;56.10
12769;DHT22;6448;48.916;8.990;2023-04-24T04:15:29;16.70;56.20
12769;DHT22;6448;48.916;8.990;2023-04-24T04:16:31;16.70;56.30
12769;DHT22;6448;48.916;8.990;2023-04-24T04:17:36;16.60;56.40
12769;DHT22;6448;48.916;8.990;2023-04-24T04:18:41;16.60;56.60
12769;DHT22;6448;48.916;8.990;2023-04-24T04:19:42;16.60;56.70
12769;DHT22;6448;48.916;8.990;2023-04-24T04:20:44;16.60;56.80
12769;DHT22;6448;48.916;8.990;2023-04-24T04:21:49;16.50;56.90
12769;DHT22;6448;48.916;8.990;2023-04-24T04:23:09;16.40;57.00
12769;DHT22;6448;48.916;8.990;2023-04-24T04:24:26;16.40;57.10
12769;DHT22;6448;48.916;8.990;2023-04-24T04:25:27;16.40;57.20
12769;DHT22;6448;48.916;8.990;2023-04-24T04:26:31;16.40;57.30
12769;DHT22;6448;48.916;8.990;2023-04-24T04:27:37;16.40;57.40
12769;DHT22;6448;48.916;8.990;2023-04-24T04:28:44;16.40;57.60
12769;DHT22;6448;48.916;8.990;2023-04-24T04:29:46;16.30;57.60
12769;DHT22;6448;48.916;8.990;2023-04-24T04:30:49;16.30;57.60
12769;DHT22;6448;48.916;8.990;2023-04-24T04:31:58;16.30;57.70
12769;DHT22;6448;48.916;8.990;2023-04-24T04:33:00;16.30;57.80
12769;DHT22;6448;48.916;8.990;2023-04-24T04:34:05;16.30;57.80
12769;DHT22;6448;48.916;8.990;2023-04-24T04:35:07;16.30;57.80
12769;DHT22;6448;48.916;8.990;2023-04-24T04:36:10;16.30;57.80
12769;DHT22;6448;48.916;8.990;2023-04-24T04:37:15;16.30;57.80
12769;DHT22;6448;48.916;8.990;2023-04-24T04:38:40;16.30;57.80
12769;DHT22;6448;48.916;8.990;2023-04-24T04:39:52;16.20;57.80
12769;DHT22;6448;48.916;8.990;2023-04-24T04:40:58;16.30;57.80
12769;DHT22;6448;48.916;8.990;2023-04-24T04:42:04;16.20;57.80
12769;DHT22;6448;48.916;8.990;2023-04-24T04:43:13;16.20;57.90
12769;DHT22;6448;48.916;8.990;2023-04-24T04:44:21;16.20;58.00
12769;DHT22;6448;48.916;8.990;2023-04-24T04:45:25;16.20;58.00
12769;DHT22;6448;48.916;8.990;2023-04-24T04:46:57;16.10;58.00
12769;DHT22;6448;48.916;8.990;2023-04-24T04:48:05;16.10;58.00
12769;DHT22;6448;48.916;8.990;2023-04-24T04:49:08;16.10;58.00
12769;DHT22;6448;48.916;8.990;2023-04-24T04:50:11;16.10;58.00
12769;DHT22;6448;48.916;8.990;2023-04-24T04:51:12;16.10;58.00
12769;DHT22;6448;48.916;8.990;2023-04-24T04:52:14;16.10;58.10
12769;DHT22;6448;48.916;8.990;2023-04-24T04:53:17;16.10;58.20
12769;DHT22;6448;48.916;8.990;2023-04-24T04:54:19;16.10;58.10
12769;DHT22;6448;48.916;8.990;2023-04-24T04:55:20;16.10;58.10
12769;DHT22;6448;48.916;8.990;2023-04-24T04:56:40;16.00;58.00
12769;DHT22;6448;48.916;8.990;2023-04-24T04:57:45;16.00;58.10
12769;DHT22;6448;48.916;8.990;2023-04-24T04:58:46;15.90;58.10
12769;DHT22;6448;48.916;8.990;2023-04-24T04:59:50;16.00;58.20
12769;DHT22;6448;48.916;8.990;2023-04-24T05:01:04;15.90;58.10
12769;DHT22;6448;48.916;8.990;2023-04-24T05:02:13;15.90;58.20
12769;DHT22;6448;48.916;8.990;2023-04-24T05:03:14;15.90;58.20
12769;DHT22;6448;48.916;8.990;2023-04-24T05:04:16;15.90;58.30
12769;DHT22;6448;48.916;8.990;2023-04-24T05:05:18;15.90;58.30
12769;DHT22;6448;48.916;8.990;2023-04-24T05:06:20;15.80;58.30
12769;DHT22;6448;48.916;8.990;2023-04-24T05:07:21;15.80;59.00
12769;DHT22;6448;48.916;8.990;2023-04-24T05:08:25;15.80;58.30
12769;DHT22;6448;48.916;8.990;2023-04-24T05:09:27;15.80;58.30
12769;DHT22;6448;48.916;8.990;2023-04-24T05:10:35;15.80;58.30
12769;DHT22;6448;48.916;8.990;2023-04-24T05:11:37;15.80;58.20
12769;DHT22;6448;48.916;8.990;2023-04-24T05:12:39;15.70;58.20
12769;DHT22;6448;48.916;8.990;2023-04-24T05:13:43;15.90;58.20
12769;DHT22;6448;48.916;8.990;2023-04-24T05:14:59;15.70;58.10
12769;DHT22;6448;48.916;8.990;2023-04-24T05:16:01;15.70;58.00
12769;DHT22;6448;48.916;8.990;2023-04-24T05:17:04;15.70;58.10
12769;DHT22;6448;48.916;8.990;2023-04-24T05:18:07;15.70;58.20
12769;DHT22;6448;48.916;8.990;2023-04-24T05:19:08;15.70;58.30
12769;DHT22;6448;48.916;8.990;2023-04-24T05:20:14;15.50;58.20
12769;DHT22;6448;48.916;8.990;2023-04-24T05:21:15;15.70;58.30
12769;DHT22;6448;48.916;8.990;2023-04-24T05:22:21;15.60;58.20
12769;DHT22;6448;48.916;8.990;2023-04-24T05:23:25;15.60;58.20
12769;DHT22;6448;48.916;8.990;2023-04-24T05:24:29;15.60;58.20
12769;DHT22;6448;48.916;8.990;2023-04-24T05:25:48;15.70;58.20
12769;DHT22;6448;48.916;8.990;2023-04-24T05:26:50;15.60;58.20
12769;DHT22;6448;48.916;8.990;2023-04-24T05:27:55;15.60;58.20
12769;DHT22;6448;48.916;8.990;2023-04-24T05:28:59;15.60;58.30
12769;DHT22;6448;48.916;8.990;2023-04-24T05:30:00;15.60;58.40
12769;DHT22;6448;48.916;8.990;2023-04-24T05:31:03;15.50;58.40
12769;DHT22;6448;48.916;8.990;2023-04-24T05:32:04;15.50;58.40
12769;DHT22;6448;48.916;8.990;2023-04-24T05:33:06;15.50;58.40
12769;DHT22;6448;48.916;8.990;2023-04-24T05:34:09;15.50;58.50
12769;DHT22;6448;48.916;8.990;2023-04-24T05:35:14;15.50;58.50
12769;DHT22;6448;48.916;8.990;2023-04-24T05:36:15;15.60;58.60
12769;DHT22;6448;48.916;8.990;2023-04-24T05:37:17;15.50;58.60
12769;DHT22;6448;48.916;8.990;2023-04-24T05:38:18;15.50;58.60
12769;DHT22;6448;48.916;8.990;2023-04-24T05:39:20;15.50;58.60
12769;DHT22;6448;48.916;8.990;2023-04-24T05:40:21;15.50;58.70
12769;DHT22;6448;48.916;8.990;2023-04-24T05:41:23;15.60;58.80
12769;DHT22;6448;48.916;8.990;2023-04-24T05:42:24;15.50;58.80
12769;DHT22;6448;48.916;8.990;2023-04-24T05:43:25;15.50;58.90
12769;DHT22;6448;48.916;8.990;2023-04-24T05:44:28;15.50;58.90
12769;DHT22;6448;48.916;8.990;2023-04-24T05:45:30;15.50;58.90
12769;DHT22;6448;48.916;8.990;2023-04-24T05:46:31;15.50;58.80
12769;DHT22;6448;48.916;8.990;2023-04-24T05:47:33;15.60;58.70
12769;DHT22;6448;48.916;8.990;2023-04-24T05:48:35;15.60;58.50
12769;DHT22;6448;48.916;8.990;2023-04-24T05:49:37;15.60;58.50
12769;DHT22;6448;48.916;8.990;2023-04-24T05:50:40;15.60;58.50
12769;DHT22;6448;48.916;8.990;2023-04-24T05:51:41;15.60;58.30
12769;DHT22;6448;48.916;8.990;2023-04-24T05:52:43;15.60;58.20
12769;DHT22;6448;48.916;8.990;2023-04-24T05:53:57;15.60;58.20
12769;DHT22;6448;48.916;8.990;2023-04-24T05:55:00;15.60;58.20
12769;DHT22;6448;48.916;8.990;2023-04-24T05:56:06;15.60;58.20
12769;DHT22;6448;48.916;8.990;2023-04-24T05:57:09;15.60;58.20
12769;DHT22;6448;48.916;8.990;2023-04-24T05:58:23;15.60;58.30
12769;DHT22;6448;48.916;8.990;2023-04-24T05:59:25;15.60;58.20
12769;DHT22;6448;48.916;8.990;2023-04-24T06:00:28;15.60;58.30
12769;DHT22;6448;48.916;8.990;2023-04-24T06:01:37;15.70;58.20
12769;DHT22;6448;48.916;8.990;2023-04-24T06:02:46;15.70;58.20
12769;DHT22;6448;48.916;8.990;2023-04-24T06:03:48;15.70;58.20
12769;DHT22;6448;48.916;8.990;2023-04-24T06:04:49;15.70;58.30
12769;DHT22;6448;48.916;8.990;2023-04-24T06:05:52;15.70;58.10
12769;DHT22;6448;48.916;8.990;2023-04-24T06:06:52;15.70;58.00
12769;DHT22;6448;48.916;8.990;2023-04-24T06:07:56;15.80;58.00
12769;DHT22;6448;48.916;8.990;2023-04-24T06:09:01;15.70;57.90
12769;DHT22;6448;48.916;8.990;2023-04-24T06:10:04;15.70;57.90
12769;DHT22;6448;48.916;8.990;2023-04-24T06:11:12;15.80;58.00
12769;DHT22;6448;48.916;8.990;2023-04-24T06:12:15;15.80;58.00
12769;DHT22;6448;48.916;8.990;2023-04-24T06:13:30;15.80;57.90
12769;DHT22;6448;48.916;8.990;2023-04-24T06:14:49;15.80;57.90
12769;DHT22;6448;48.916;8.990;2023-04-24T06:15:57;15.80;57.80
12769;DHT22;6448;48.916;8.990;2023-04-24T06:17:08;15.80;57.80
12769;DHT22;6448;48.916;8.990;2023-04-24T06:18:13;15.80;57.80
12769;DHT22;6448;48.916;8.990;2023-04-24T06:19:16;15.80;57.80
12769;DHT22;6448;48.916;8.990;2023-04-24T06:20:18;15.90;57.90
12769;DHT22;6448;48.916;8.990;2023-04-24T06:21:18;15.90;57.70
12769;DHT22;6448;48.916;8.990;2023-04-24T06:22:20;15.90;57.70
12769;DHT22;6448;48.916;8.990;2023-04-24T06:23:21;16.10;57.70
12769;DHT22;6448;48.916;8.990;2023-04-24T06:24:27;15.90;57.60
12769;DHT22;6448;48.916;8.990;2023-04-24T06:25:28;15.90;57.70
12769;DHT22;6448;48.916;8.990;2023-04-24T06:26:30;15.90;57.60
12769;DHT22;6448;48.916;8.990;2023-04-24T06:27:31;16.00;57.70
12769;DHT22;6448;48.916;8.990;2023-04-24T06:28:32;15.90;57.70
12769;DHT22;6448;48.916;8.990;2023-04-24T06:29:35;16.00;57.60
12769;DHT22;6448;48.916;8.990;2023-04-24T06:30:37;16.00;57.30
12769;DHT22;6448;48.916;8.990;2023-04-24T06:31:39;16.00;57.20
12769;DHT22;6448;48.916;8.990;2023-04-24T06:32:41;16.00;57.20
12769;DHT22;6448;48.916;8.990;2023-04-24T06:33:42;16.00;56.90
12769;DHT22;6448;48.916;8.990;2023-04-24T06:34:44;16.00;56.70
12769;DHT22;6448;48.916;8.990;2023-04-24T06:35:46;16.00;56.70
12769;DHT22;6448;48.916;8.990;2023-04-24T06:36:48;16.00;56.60
12769;DHT22;6448;48.916;8.990;2023-04-24T06:37:49;16.00;56.60
12769;DHT22;6448;48.916;8.990;2023-04-24T06:38:51;16.10;56.80
12769;DHT22;6448;48.916;8.990;2023-04-24T06:39:52;15.90;56.70
12769;DHT22;6448;48.916;8.990;2023-04-24T06:40:53;16.00;56.80
12769;DHT22;6448;48.916;8.990;2023-04-24T06:41:54;16.00;56.80
12769;DHT22;6448;48.916;8.990;2023-04-24T06:42:57;16.10;56.90
12769;DHT22;6448;48.916;8.990;2023-04-24T06:44:00;16.00;56.70
12769;DHT22;6448;48.916;8.990;2023-04-24T06:45:02;16.00;56.60